sensor_id;sensor_type;location;lat;lon;timestamp;pressure;altitude;pressure_sealevel;temperature;humidity
38452;BME280;24231;52.514;13.438;2023-02-15T00:03:02;102733.27;;;4.60;67.86
38452;BME280;24231;52.514;13.438;2023-02-15T00:05:30;102737.91;;;4.21;69.31
38452;BME280;24231;52.514;13.438;2023-02-15T00:08:13;102738.27;;;4.45;68.30
38452;BME280;24231;52.514;13.438;2023-02-15T00:10:46;102748.19;;;4.14;69.33
38452;BME280;24231;52.514;13.438;2023-02-15T00:13:13;102742.25;;;4.54;67.40
38452;BME280;24231;52.514;13.438;2023-02-15T00:15:53;102748.92;;;3.83;70.18
38452;BME280;24231;52.514;13.438;2023-02-15T00:18:20;102747.67;;;3.81;70.90
38452;BME280;24231;52.514;13.438;2023-02-15T00:20:48;102735.60;;;4.20;69.25
38452;BME280;24231;52.514;13.438;2023-02-15T00:23:15;102725.68;;;4.41;67.80
38452;BME280;24231;52.514;13.438;2023-02-15T00:25:42;102720.20;;;3.98;68.91
38452;BME280;24231;52.514;13.438;2023-02-15T00:28:09;102716.30;;;3.91;69.83
38452;BME280;24231;52.514;13.438;2023-02-15T00:30:37;102716.60;;;4.67;66.53
38452;BME280;24231;52.514;13.438;2023-02-15T00:33:05;102710.80;;;4.32;68.36
38452;BME280;24231;52.514;13.438;2023-02-15T00:35:32;102709.07;;;4.59;68.06
38452;BME280;24231;52.514;13.438;2023-02-15T00:37:59;102708.04;;;4.33;69.19
38452;BME280;24231;52.514;13.438;2023-02-15T00:40:26;102708.45;;;5.05;67.02
38452;BME280;24231;52.514;13.438;2023-02-15T00:42:54;102715.90;;;3.99;70.43
38452;BME280;24231;52.514;13.438;2023-02-15T00:45:20;102717.33;;;3.71;71.70
38452;BME280;24231;52.514;13.438;2023-02-15T00:47:48;102714.26;;;4.00;70.62
38452;BME280;24231;52.514;13.438;2023-02-15T00:50:15;102715.43;;;4.08;70.63
38452;BME280;24231;52.514;13.438;2023-02-15T00:52:42;102712.79;;;4.51;69.15
38452;BME280;24231;52.514;13.438;2023-02-15T00:55:10;102710.62;;;5.15;66.19
38452;BME280;24231;52.514;13.438;2023-02-15T00:57:37;102708.59;;;6.43;60.72
38452;BME280;24231;52.514;13.438;2023-02-15T01:00:20;102709.51;;;7.13;57.69
38452;BME280;24231;52.514;13.438;2023-02-15T01:03:28;102705.48;;;7.10;58.72
38452;BME280;24231;52.514;13.438;2023-02-15T01:05:56;102707.73;;;5.92;62.14
38452;BME280;24231;52.514;13.438;2023-02-15T01:08:23;102707.06;;;5.29;63.87
38452;BME280;24231;52.514;13.438;2023-02-15T01:10:52;102710.31;;;3.51;70.07
38452;BME280;24231;52.514;13.438;2023-02-15T01:13:20;102704.71;;;4.11;68.18
38452;BME280;24231;52.514;13.438;2023-02-15T01:15:53;102696.26;;;5.73;62.89
38452;BME280;24231;52.514;13.438;2023-02-15T01:19:02;102688.10;;;6.03;61.93
38452;BME280;24231;52.514;13.438;2023-02-15T01:21:30;102684.24;;;5.77;61.60
38452;BME280;24231;52.514;13.438;2023-02-15T01:24:12;102681.66;;;5.65;63.32
38452;BME280;24231;52.514;13.438;2023-02-15T01:26:40;102680.89;;;3.95;68.18
38452;BME280;24231;52.514;13.438;2023-02-15T01:29:07;102679.67;;;5.42;64.82
38452;BME280;24231;52.514;13.438;2023-02-15T01:31:34;102672.82;;;6.66;59.87
38452;BME280;24231;52.514;13.438;2023-02-15T01:34:02;102669.43;;;6.58;59.45
38452;BME280;24231;52.514;13.438;2023-02-15T01:36:29;102672.01;;;4.89;64.76
38452;BME280;24231;52.514;13.438;2023-02-15T01:38:56;102663.48;;;6.32;60.31
38452;BME280;24231;52.514;13.438;2023-02-15T01:41:23;102666.50;;;4.36;66.71
38452;BME280;24231;52.514;13.438;2023-02-15T01:43:53;102665.17;;;4.03;68.87
38452;BME280;24231;52.514;13.438;2023-02-15T01:46:26;102661.11;;;3.65;69.65
38452;BME280;24231;52.514;13.438;2023-02-15T01:48:59;102655.84;;;3.74;70.08
38452;BME280;24231;52.514;13.438;2023-02-15T01:51:32;102651.38;;;4.98;66.39
38452;BME280;24231;52.514;13.438;2023-02-15T01:54:03;102647.68;;;4.54;67.82
38452;BME280;24231;52.514;13.438;2023-02-15T01:56:43;102641.58;;;4.23;68.21
38452;BME280;24231;52.514;13.438;2023-02-15T01:59:17;102640.08;;;5.15;65.25
38452;BME280;24231;52.514;13.438;2023-02-15T02:01:46;102642.56;;;3.57;69.59
38452;BME280;24231;52.514;13.438;2023-02-15T02:04:17;102640.88;;;4.07;68.59
38452;BME280;24231;52.514;13.438;2023-02-15T02:06:58;102638.48;;;3.93;69.49
38452;BME280;24231;52.514;13.438;2023-02-15T02:09:42;102634.54;;;3.75;72.18
38452;BME280;24231;52.514;13.438;2023-02-15T02:12:27;102636.96;;;2.90;74.78
38452;BME280;24231;52.514;13.438;2023-02-15T02:14:56;102634.36;;;2.58;76.94
38452;BME280;24231;52.514;13.438;2023-02-15T02:17:34;102626.78;;;2.22;79.94
38452;BME280;24231;52.514;13.438;2023-02-15T02:20:52;102630.38;;;2.81;75.96
38452;BME280;24231;52.514;13.438;2023-02-15T02:23:36;102626.28;;;2.54;77.98
38452;BME280;24231;52.514;13.438;2023-02-15T02:26:49;102625.31;;;3.01;74.72
38452;BME280;24231;52.514;13.438;2023-02-15T02:29:45;102622.66;;;3.51;72.10
38452;BME280;24231;52.514;13.438;2023-02-15T02:34:44;102614.54;;;4.26;69.28
38452;BME280;24231;52.514;13.438;2023-02-15T02:37:20;102609.75;;;4.69;66.46
38452;BME280;24231;52.514;13.438;2023-02-15T02:40:07;102611.44;;;3.24;72.12
38452;BME280;24231;52.514;13.438;2023-02-15T02:42:41;102599.85;;;4.80;66.87
38452;BME280;24231;52.514;13.438;2023-02-15T02:45:15;102598.33;;;4.49;67.14
38452;BME280;24231;52.514;13.438;2023-02-15T02:47:48;102606.41;;;3.18;72.26
38452;BME280;24231;52.514;13.438;2023-02-15T02:50:28;102605.05;;;2.32;75.49
38452;BME280;24231;52.514;13.438;2023-02-15T02:52:57;102600.31;;;3.50;72.86
38452;BME280;24231;52.514;13.438;2023-02-15T02:55:28;102602.46;;;2.72;74.31
38452;BME280;24231;52.514;13.438;2023-02-15T02:58:01;102601.25;;;1.72;79.77
38452;BME280;24231;52.514;13.438;2023-02-15T03:00:34;102599.66;;;1.24;83.30
38452;BME280;24231;52.514;13.438;2023-02-15T03:03:06;102595.35;;;1.67;82.32
38452;BME280;24231;52.514;13.438;2023-02-15T03:05:39;102592.67;;;1.70;81.21
38452;BME280;24231;52.514;13.438;2023-02-15T03:08:08;102587.87;;;2.04;79.23
38452;BME280;24231;52.514;13.438;2023-02-15T03:10:38;102583.13;;;4.12;70.45
38452;BME280;24231;52.514;13.438;2023-02-15T03:13:08;102580.48;;;4.18;68.87
38452;BME280;24231;52.514;13.438;2023-02-15T03:15:38;102581.57;;;3.29;71.35
38452;BME280;24231;52.514;13.438;2023-02-15T03:18:18;102581.06;;;4.25;67.87
38452;BME280;24231;52.514;13.438;2023-02-15T03:20:55;102577.99;;;4.17;68.03
38452;BME280;24231;52.514;13.438;2023-02-15T03:23:34;102587.55;;;2.56;73.17
38452;BME280;24231;52.514;13.438;2023-02-15T03:26:15;102587.09;;;3.10;72.42
38452;BME280;24231;52.514;13.438;2023-02-15T03:28:45;102578.15;;;3.24;70.38
38452;BME280;24231;52.514;13.438;2023-02-15T03:31:25;102579.62;;;2.30;74.64
38452;BME280;24231;52.514;13.438;2023-02-15T03:33:57;102578.42;;;2.55;72.80
38452;BME280;24231;52.514;13.438;2023-02-15T03:36:43;102575.26;;;2.40;74.73
38452;BME280;24231;52.514;13.438;2023-02-15T03:39:18;102574.29;;;3.04;71.96
38452;BME280;24231;52.514;13.438;2023-02-15T03:42:06;102574.08;;;3.17;70.55
38452;BME280;24231;52.514;13.438;2023-02-15T03:44:42;102576.92;;;0.96;79.52
38452;BME280;24231;52.514;13.438;2023-02-15T03:47:15;102570.55;;;1.97;76.61
38452;BME280;24231;52.514;13.438;2023-02-15T03:49:50;102568.42;;;1.69;77.85
38452;BME280;24231;52.514;13.438;2023-02-15T03:52:21;102573.12;;;1.13;79.06
38452;BME280;24231;52.514;13.438;2023-02-15T03:54:52;102564.77;;;1.70;78.18
38452;BME280;24231;52.514;13.438;2023-02-15T03:57:21;102558.81;;;2.02;77.46
38452;BME280;24231;52.514;13.438;2023-02-15T04:00:00;102556.29;;;1.45;77.28
38452;BME280;24231;52.514;13.438;2023-02-15T04:02:34;102555.63;;;1.86;75.84
38452;BME280;24231;52.514;13.438;2023-02-15T04:05:16;102555.33;;;1.30;78.55
38452;BME280;24231;52.514;13.438;2023-02-15T04:07:43;102554.10;;;1.47;76.80
38452;BME280;24231;52.514;13.438;2023-02-15T04:10:11;102553.45;;;1.69;76.98
38452;BME280;24231;52.514;13.438;2023-02-15T04:12:38;102559.83;;;1.00;78.34
38452;BME280;24231;52.514;13.438;2023-02-15T04:15:08;102554.29;;;1.32;76.76
38452;BME280;24231;52.514;13.438;2023-02-15T04:17:36;102552.17;;;0.72;81.49
38452;BME280;24231;52.514;13.438;2023-02-15T04:20:06;102546.67;;;1.29;78.13
38452;BME280;24231;52.514;13.438;2023-02-15T04:22:34;102545.85;;;0.49;79.60
38452;BME280;24231;52.514;13.438;2023-02-15T04:25:01;102546.87;;;1.09;78.39
38452;BME280;24231;52.514;13.438;2023-02-15T04:27:39;102544.73;;;1.01;78.84
38452;BME280;24231;52.514;13.438;2023-02-15T04:30:08;102541.04;;;1.13;77.20
38452;BME280;24231;52.514;13.438;2023-02-15T04:32:36;102542.22;;;1.47;75.29
38452;BME280;24231;52.514;13.438;2023-02-15T04:35:05;102538.72;;;1.63;73.54
38452;BME280;24231;52.514;13.438;2023-02-15T04:37:34;102537.31;;;2.14;71.97
38452;BME280;24231;52.514;13.438;2023-02-15T04:40:13;102533.72;;;1.70;73.60
38452;BME280;24231;52.514;13.438;2023-02-15T04:42:41;102533.42;;;1.29;75.62
38452;BME280;24231;52.514;13.438;2023-02-15T04:45:09;102535.75;;;1.01;75.18
38452;BME280;24231;52.514;13.438;2023-02-15T04:47:36;102531.05;;;2.33;71.61
38452;BME280;24231;52.514;13.438;2023-02-15T04:50:13;102530.29;;;1.13;75.74
38452;BME280;24231;52.514;13.438;2023-02-15T04:52:41;102521.92;;;0.92;77.22
38452;BME280;24231;52.514;13.438;2023-02-15T04:55:08;102515.76;;;1.48;74.71
38452;BME280;24231;52.514;13.438;2023-02-15T04:57:36;102514.83;;;0.68;76.98
38452;BME280;24231;52.514;13.438;2023-02-15T05:00:05;102507.30;;;1.27;74.82
38452;BME280;24231;52.514;13.438;2023-02-15T05:02:32;102506.86;;;0.15;80.54
38452;BME280;24231;52.514;13.438;2023-02-15T05:05:39;102502.70;;;0.19;83.08
38452;BME280;24231;52.514;13.438;2023-02-15T05:08:09;102498.66;;;0.85;79.17
38452;BME280;24231;52.514;13.438;2023-02-15T05:10:36;102498.14;;;0.71;76.72
38452;BME280;24231;52.514;13.438;2023-02-15T05:13:14;102493.94;;;0.32;81.15
38452;BME280;24231;52.514;13.438;2023-02-15T05:15:46;102487.82;;;0.56;79.69
38452;BME280;24231;52.514;13.438;2023-02-15T05:18:13;102487.88;;;-0.37;84.10
38452;BME280;24231;52.514;13.438;2023-02-15T05:20:40;102484.61;;;-0.44;84.52
38452;BME280;24231;52.514;13.438;2023-02-15T05:23:08;102488.54;;;-0.10;80.43
38452;BME280;24231;52.514;13.438;2023-02-15T05:25:37;102489.01;;;-0.27;83.02
38452;BME280;24231;52.514;13.438;2023-02-15T05:28:08;102490.21;;;0.22;81.05
38452;BME280;24231;52.514;13.438;2023-02-15T05:30:36;102484.53;;;0.54;78.05
38452;BME280;24231;52.514;13.438;2023-02-15T05:33:03;102484.01;;;0.51;79.35
38452;BME280;24231;52.514;13.438;2023-02-15T05:35:31;102482.97;;;0.15;78.73
38452;BME280;24231;52.514;13.438;2023-02-15T05:38:10;102482.94;;;1.72;73.54
38452;BME280;24231;52.514;13.438;2023-02-15T05:40:37;102484.76;;;0.86;75.77
38452;BME280;24231;52.514;13.438;2023-02-15T05:43:05;102483.85;;;1.65;73.24
38452;BME280;24231;52.514;13.438;2023-02-15T05:45:32;102476.13;;;1.37;73.50
38452;BME280;24231;52.514;13.438;2023-02-15T05:47:59;102472.30;;;1.58;73.38
38452;BME280;24231;52.514;13.438;2023-02-15T05:50:27;102473.02;;;1.50;74.95
38452;BME280;24231;52.514;13.438;2023-02-15T05:52:54;102474.61;;;-0.03;79.68
38452;BME280;24231;52.514;13.438;2023-02-15T05:55:21;102475.29;;;-0.87;85.21
38452;BME280;24231;52.514;13.438;2023-02-15T05:57:50;102479.92;;;-1.02;86.95
38452;BME280;24231;52.514;13.438;2023-02-15T06:00:18;102481.07;;;-1.40;90.19
38452;BME280;24231;52.514;13.438;2023-02-15T06:02:45;102477.36;;;-0.65;86.70
38452;BME280;24231;52.514;13.438;2023-02-15T06:05:13;102476.14;;;-0.49;84.46
38452;BME280;24231;52.514;13.438;2023-02-15T06:07:42;102480.33;;;-0.66;85.18
38452;BME280;24231;52.514;13.438;2023-02-15T06:10:10;102477.57;;;-0.90;87.53
38452;BME280;24231;52.514;13.438;2023-02-15T06:12:38;102476.87;;;-1.56;92.39
38452;BME280;24231;52.514;13.438;2023-02-15T06:15:08;102476.74;;;-0.18;83.90
38452;BME280;24231;52.514;13.438;2023-02-15T06:17:36;102470.69;;;-0.74;86.15
38452;BME280;24231;52.514;13.438;2023-02-15T06:20:05;102471.01;;;-0.32;84.99
38452;BME280;24231;52.514;13.438;2023-02-15T06:22:39;102468.96;;;-0.40;85.21
38452;BME280;24231;52.514;13.438;2023-02-15T06:25:07;102474.11;;;-0.26;83.95
38452;BME280;24231;52.514;13.438;2023-02-15T06:27:34;102470.52;;;-0.82;86.74
38452;BME280;24231;52.514;13.438;2023-02-15T06:30:03;102466.77;;;1.16;78.62
38452;BME280;24231;52.514;13.438;2023-02-15T06:32:30;102467.96;;;-0.20;82.67
38452;BME280;24231;52.514;13.438;2023-02-15T06:34:57;102465.86;;;-0.27;83.97
38452;BME280;24231;52.514;13.438;2023-02-15T06:37:25;102466.72;;;0.04;82.50
38452;BME280;24231;52.514;13.438;2023-02-15T06:39:53;102465.01;;;-0.29;83.63
38452;BME280;24231;52.514;13.438;2023-02-15T06:42:21;102465.73;;;-0.17;82.69
38452;BME280;24231;52.514;13.438;2023-02-15T06:44:48;102469.22;;;-0.47;83.66
38452;BME280;24231;52.514;13.438;2023-02-15T06:47:27;102463.83;;;0.25;80.21
38452;BME280;24231;52.514;13.438;2023-02-15T06:49:55;102457.57;;;-0.06;82.09
38452;BME280;24231;52.514;13.438;2023-02-15T06:52:23;102459.78;;;0.23;80.69
38452;BME280;24231;52.514;13.438;2023-02-15T06:54:52;102456.63;;;0.38;79.86
38452;BME280;24231;52.514;13.438;2023-02-15T06:57:33;102459.53;;;0.26;80.48
38452;BME280;24231;52.514;13.438;2023-02-15T07:00:01;102457.10;;;1.92;73.03
38452;BME280;24231;52.514;13.438;2023-02-15T07:02:28;102454.51;;;0.64;77.49
38452;BME280;24231;52.514;13.438;2023-02-15T07:04:55;102452.59;;;0.71;77.31
38452;BME280;24231;52.514;13.438;2023-02-15T07:07:22;102455.40;;;0.24;82.69
38452;BME280;24231;52.514;13.438;2023-02-15T07:09:49;102449.19;;;0.60;81.14
38452;BME280;24231;52.514;13.438;2023-02-15T07:12:27;102451.00;;;0.47;80.66
38452;BME280;24231;52.514;13.438;2023-02-15T07:14:54;102444.94;;;1.22;77.60
38452;BME280;24231;52.514;13.438;2023-02-15T07:17:33;102445.51;;;1.44;75.80
38452;BME280;24231;52.514;13.438;2023-02-15T07:20:00;102445.20;;;1.25;76.77
38452;BME280;24231;52.514;13.438;2023-02-15T07:22:29;102442.89;;;0.52;78.84
38452;BME280;24231;52.514;13.438;2023-02-15T07:24:56;102442.35;;;0.15;82.15
38452;BME280;24231;52.514;13.438;2023-02-15T07:27:23;102438.68;;;0.23;81.36
38452;BME280;24231;52.514;13.438;2023-02-15T07:29:52;102437.15;;;0.23;81.69
38452;BME280;24231;52.514;13.438;2023-02-15T07:32:20;102432.05;;;-0.02;83.51
38452;BME280;24231;52.514;13.438;2023-02-15T07:34:47;102431.38;;;0.22;82.33
38452;BME280;24231;52.514;13.438;2023-02-15T07:37:14;102425.90;;;0.53;79.23
38452;BME280;24231;52.514;13.438;2023-02-15T07:39:42;102422.19;;;0.82;80.40
38452;BME280;24231;52.514;13.438;2023-02-15T07:42:09;102425.91;;;-0.08;83.03
38452;BME280;24231;52.514;13.438;2023-02-15T07:44:37;102421.74;;;-0.56;85.64
38452;BME280;24231;52.514;13.438;2023-02-15T07:47:49;102418.96;;;-0.04;84.16
38452;BME280;24231;52.514;13.438;2023-02-15T07:50:17;102416.68;;;-0.17;84.69
38452;BME280;24231;52.514;13.438;2023-02-15T07:52:48;102412.47;;;-0.05;84.01
38452;BME280;24231;52.514;13.438;2023-02-15T07:55:15;102409.64;;;-0.12;83.52
38452;BME280;24231;52.514;13.438;2023-02-15T07:57:50;102406.81;;;-0.29;83.48
38452;BME280;24231;52.514;13.438;2023-02-15T08:00:22;102405.59;;;-0.08;82.34
38452;BME280;24231;52.514;13.438;2023-02-15T08:03:01;102400.60;;;0.68;79.79
38452;BME280;24231;52.514;13.438;2023-02-15T08:05:35;102406.72;;;-0.46;84.48
38452;BME280;24231;52.514;13.438;2023-02-15T08:08:14;102404.98;;;-0.77;86.32
38452;BME280;24231;52.514;13.438;2023-02-15T08:10:42;102402.95;;;-0.11;84.47
38452;BME280;24231;52.514;13.438;2023-02-15T08:13:11;102404.60;;;-0.39;84.30
38452;BME280;24231;52.514;13.438;2023-02-15T08:15:39;102400.89;;;0.19;82.14
38452;BME280;24231;52.514;13.438;2023-02-15T08:18:06;102402.62;;;0.57;79.91
38452;BME280;24231;52.514;13.438;2023-02-15T08:20:33;102405.73;;;0.29;81.69
38452;BME280;24231;52.514;13.438;2023-02-15T08:23:12;102405.18;;;0.56;81.23
38452;BME280;24231;52.514;13.438;2023-02-15T08:25:40;102405.13;;;0.68;79.38
38452;BME280;24231;52.514;13.438;2023-02-15T08:28:09;102406.14;;;1.50;77.65
38452;BME280;24231;52.514;13.438;2023-02-15T08:30:36;102402.73;;;1.21;77.19
38452;BME280;24231;52.514;13.438;2023-02-15T08:33:05;102400.50;;;0.40;80.64
38452;BME280;24231;52.514;13.438;2023-02-15T08:35:40;102393.36;;;0.70;80.16
38452;BME280;24231;52.514;13.438;2023-02-15T08:38:07;102395.42;;;0.15;81.93
38452;BME280;24231;52.514;13.438;2023-02-15T08:40:36;102396.07;;;0.08;83.93
38452;BME280;24231;52.514;13.438;2023-02-15T08:43:04;102392.08;;;0.27;82.85
38452;BME280;24231;52.514;13.438;2023-02-15T08:45:41;102389.59;;;0.38;82.03
38452;BME280;24231;52.514;13.438;2023-02-15T08:48:08;102383.51;;;0.11;83.03
38452;BME280;24231;52.514;13.438;2023-02-15T08:50:46;102375.77;;;0.28;82.50
38452;BME280;24231;52.514;13.438;2023-02-15T08:53:24;102369.74;;;0.49;82.74
38452;BME280;24231;52.514;13.438;2023-02-15T08:56:01;102369.54;;;0.26;82.85
38452;BME280;24231;52.514;13.438;2023-02-15T08:58:28;102366.24;;;0.23;83.08
38452;BME280;24231;52.514;13.438;2023-02-15T09:00:58;102363.92;;;0.22;83.52
38452;BME280;24231;52.514;13.438;2023-02-15T09:03:25;102362.77;;;1.12;80.31
38452;BME280;24231;52.514;13.438;2023-02-15T09:06:08;102356.50;;;1.80;77.74
38452;BME280;24231;52.514;13.438;2023-02-15T09:09:19;102354.61;;;0.42;83.61
38452;BME280;24231;52.514;13.438;2023-02-15T09:11:48;102354.49;;;1.09;79.89
38452;BME280;24231;52.514;13.438;2023-02-15T09:14:18;102356.03;;;0.95;80.91
38452;BME280;24231;52.514;13.438;2023-02-15T09:16:56;102355.06;;;2.21;76.39
38452;BME280;24231;52.514;13.438;2023-02-15T09:19:40;102358.73;;;1.56;77.76
38452;BME280;24231;52.514;13.438;2023-02-15T09:22:09;102354.65;;;2.43;76.08
38452;BME280;24231;52.514;13.438;2023-02-15T09:24:37;102354.08;;;2.75;72.68
38452;BME280;24231;52.514;13.438;2023-02-15T09:27:09;102353.05;;;2.10;74.96
38452;BME280;24231;52.514;13.438;2023-02-15T09:29:36;102353.93;;;2.15;74.74
38452;BME280;24231;52.514;13.438;2023-02-15T09:32:04;102354.04;;;1.84;77.37
38452;BME280;24231;52.514;13.438;2023-02-15T09:34:32;102354.82;;;1.81;77.57
38452;BME280;24231;52.514;13.438;2023-02-15T09:37:00;102356.63;;;1.92;77.29
38452;BME280;24231;52.514;13.438;2023-02-15T09:39:28;102361.12;;;1.52;79.15
38452;BME280;24231;52.514;13.438;2023-02-15T09:43:12;102361.68;;;1.71;79.01
38452;BME280;24231;52.514;13.438;2023-02-15T09:46:09;102359.41;;;2.07;78.04
38452;BME280;24231;52.514;13.438;2023-02-15T09:48:42;102354.36;;;2.69;73.39
38452;BME280;24231;52.514;13.438;2023-02-15T09:51:24;102353.09;;;2.79;74.04
38452;BME280;24231;52.514;13.438;2023-02-15T09:54:09;102350.83;;;2.30;75.33
38452;BME280;24231;52.514;13.438;2023-02-15T09:56:48;102353.28;;;1.92;78.07
38452;BME280;24231;52.514;13.438;2023-02-15T09:59:22;102350.64;;;2.01;76.98
38452;BME280;24231;52.514;13.438;2023-02-15T10:02:08;102346.63;;;2.50;74.52
38452;BME280;24231;52.514;13.438;2023-02-15T10:04:58;102342.93;;;3.52;69.79
38452;BME280;24231;52.514;13.438;2023-02-15T10:07:56;102341.59;;;2.96;73.29
38452;BME280;24231;52.514;13.438;2023-02-15T10:10:34;102338.09;;;3.35;71.58
38452;BME280;24231;52.514;13.438;2023-02-15T10:13:16;102341.80;;;2.77;73.33
38452;BME280;24231;52.514;13.438;2023-02-15T10:16:02;102335.93;;;4.37;67.03
38452;BME280;24231;52.514;13.438;2023-02-15T10:18:46;102337.50;;;4.59;66.06
38452;BME280;24231;52.514;13.438;2023-02-15T10:21:26;102332.84;;;4.70;63.80
38452;BME280;24231;52.514;13.438;2023-02-15T10:24:14;102327.97;;;3.77;68.40
38452;BME280;24231;52.514;13.438;2023-02-15T10:26:49;102323.48;;;5.19;62.93
38452;BME280;24231;52.514;13.438;2023-02-15T10:29:25;102322.86;;;5.04;62.88
38452;BME280;24231;52.514;13.438;2023-02-15T10:32:13;102312.50;;;6.19;59.77
38452;BME280;24231;52.514;13.438;2023-02-15T10:34:48;102307.65;;;6.19;59.58
38452;BME280;24231;52.514;13.438;2023-02-15T10:37:30;102303.44;;;7.08;56.75
38452;BME280;24231;52.514;13.438;2023-02-15T10:40:07;102298.37;;;7.04;56.35
38452;BME280;24231;52.514;13.438;2023-02-15T10:42:45;102297.51;;;5.84;60.54
38452;BME280;24231;52.514;13.438;2023-02-15T10:45:23;102297.77;;;6.37;59.17
38452;BME280;24231;52.514;13.438;2023-02-15T10:48:04;102296.30;;;6.40;59.29
38452;BME280;24231;52.514;13.438;2023-02-15T10:50:46;102295.92;;;6.24;60.04
38452;BME280;24231;52.514;13.438;2023-02-15T10:53:37;102293.23;;;5.83;61.15
38452;BME280;24231;52.514;13.438;2023-02-15T10:56:17;102291.90;;;6.28;60.13
38452;BME280;24231;52.514;13.438;2023-02-15T10:59:00;102291.74;;;5.58;62.04
38452;BME280;24231;52.514;13.438;2023-02-15T11:01:40;102287.33;;;6.55;58.92
38452;BME280;24231;52.514;13.438;2023-02-15T11:04:29;102283.27;;;7.24;57.11
38452;BME280;24231;52.514;13.438;2023-02-15T11:07:15;102287.60;;;6.38;59.46
38452;BME280;24231;52.514;13.438;2023-02-15T11:10:05;102278.33;;;6.28;59.48
38452;BME280;24231;52.514;13.438;2023-02-15T11:12:45;102270.81;;;7.70;55.12
38452;BME280;24231;52.514;13.438;2023-02-15T11:15:23;102270.59;;;6.51;58.68
38452;BME280;24231;52.514;13.438;2023-02-15T11:17:58;102259.55;;;7.51;55.14
38452;BME280;24231;52.514;13.438;2023-02-15T11:20:36;102264.43;;;6.32;58.28
38452;BME280;24231;52.514;13.438;2023-02-15T11:23:13;102262.02;;;6.37;58.20
38452;BME280;24231;52.514;13.438;2023-02-15T11:25:43;102257.50;;;5.79;59.85
38452;BME280;24231;52.514;13.438;2023-02-15T11:28:19;102260.81;;;6.37;59.77
38452;BME280;24231;52.514;13.438;2023-02-15T11:30:55;102257.64;;;5.90;60.91
38452;BME280;24231;52.514;13.438;2023-02-15T11:33:27;102251.81;;;6.64;58.56
38452;BME280;24231;52.514;13.438;2023-02-15T11:36:01;102249.55;;;6.53;58.91
38452;BME280;24231;52.514;13.438;2023-02-15T11:38:33;102241.63;;;6.29;59.95
38452;BME280;24231;52.514;13.438;2023-02-15T11:41:07;102238.36;;;7.63;55.37
38452;BME280;24231;52.514;13.438;2023-02-15T11:43:41;102235.94;;;7.21;56.25
38452;BME280;24231;52.514;13.438;2023-02-15T11:46:12;102233.37;;;6.64;58.87
38452;BME280;24231;52.514;13.438;2023-02-15T11:48:39;102229.67;;;6.79;58.07
38452;BME280;24231;52.514;13.438;2023-02-15T11:51:11;102224.92;;;5.66;62.44
38452;BME280;24231;52.514;13.438;2023-02-15T11:53:42;102227.59;;;6.05;61.99
38452;BME280;24231;52.514;13.438;2023-02-15T11:56:14;102224.51;;;5.98;61.22
38452;BME280;24231;52.514;13.438;2023-02-15T11:58:45;102223.27;;;7.86;55.07
38452;BME280;24231;52.514;13.438;2023-02-15T12:01:20;102223.16;;;7.56;55.98
38452;BME280;24231;52.514;13.438;2023-02-15T12:04:07;102221.42;;;8.07;54.37
38452;BME280;24231;52.514;13.438;2023-02-15T12:06:46;102220.94;;;7.77;54.57
38452;BME280;24231;52.514;13.438;2023-02-15T12:09:26;102226.01;;;6.70;57.95
38452;BME280;24231;52.514;13.438;2023-02-15T12:12:23;102225.47;;;8.16;54.74
38452;BME280;24231;52.514;13.438;2023-02-15T12:15:08;102223.09;;;8.27;53.59
38452;BME280;24231;52.514;13.438;2023-02-15T12:18:33;102217.86;;;8.78;53.34
38452;BME280;24231;52.514;13.438;2023-02-15T12:21:06;102215.50;;;8.22;53.71
38452;BME280;24231;52.514;13.438;2023-02-15T12:23:42;102208.82;;;8.97;51.67
38452;BME280;24231;52.514;13.438;2023-02-15T12:26:12;102212.88;;;6.54;58.50
38452;BME280;24231;52.514;13.438;2023-02-15T12:28:41;102206.36;;;5.76;61.88
38452;BME280;24231;52.514;13.438;2023-02-15T12:31:20;102201.25;;;6.51;59.84
38452;BME280;24231;52.514;13.438;2023-02-15T12:33:52;102196.96;;;5.62;63.90
38452;BME280;24231;52.514;13.438;2023-02-15T12:36:22;102193.81;;;5.94;63.35
38452;BME280;24231;52.514;13.438;2023-02-15T12:39:05;102191.12;;;5.57;64.07
38452;BME280;24231;52.514;13.438;2023-02-15T12:41:33;102187.57;;;6.16;62.96
38452;BME280;24231;52.514;13.438;2023-02-15T12:44:06;102186.42;;;6.00;62.71
38452;BME280;24231;52.514;13.438;2023-02-15T12:46:34;102180.18;;;6.91;59.64
38452;BME280;24231;52.514;13.438;2023-02-15T12:49:17;102179.50;;;6.34;61.77
38452;BME280;24231;52.514;13.438;2023-02-15T12:51:47;102172.85;;;6.62;60.16
38452;BME280;24231;52.514;13.438;2023-02-15T12:54:31;102168.13;;;6.06;62.92
38452;BME280;24231;52.514;13.438;2023-02-15T12:57:13;102164.91;;;7.80;56.86
38452;BME280;24231;52.514;13.438;2023-02-15T12:59:50;102164.72;;;6.14;61.57
38452;BME280;24231;52.514;13.438;2023-02-15T13:02:22;102157.79;;;6.23;62.07
38452;BME280;24231;52.514;13.438;2023-02-15T13:04:51;102155.39;;;6.22;62.62
38452;BME280;24231;52.514;13.438;2023-02-15T13:07:21;102150.14;;;6.26;62.37
38452;BME280;24231;52.514;13.438;2023-02-15T13:09:53;102146.74;;;6.68;60.64
38452;BME280;24231;52.514;13.438;2023-02-15T13:12:23;102149.30;;;5.95;63.71
38452;BME280;24231;52.514;13.438;2023-02-15T13:14:52;102145.60;;;6.64;61.66
38452;BME280;24231;52.514;13.438;2023-02-15T13:17:24;102137.62;;;6.93;60.03
38452;BME280;24231;52.514;13.438;2023-02-15T13:19:53;102134.29;;;7.56;58.74
38452;BME280;24231;52.514;13.438;2023-02-15T13:22:24;102129.28;;;7.53;57.81
38452;BME280;24231;52.514;13.438;2023-02-15T13:24:56;102126.51;;;6.74;61.67
38452;BME280;24231;52.514;13.438;2023-02-15T13:27:29;102116.98;;;6.82;60.26